Startpagina
METAR-TAF:

METAR-TAF

Vliegvelden :

Fort-de-France, Martinique

breedte: 14-36N, lengte: 061-00W, hoogte: 5 m

Actueel weer

Dit bericht is 13 minuten geleden gemaakt, om 07:30 UTC
Wind 2 kt uit variabele richting
Temperatuur 25°C
Vochtigheid 83%
Druk 1015 hPa
Zicht 10 km of meer
Verspreide wolken op 2200 ft
Verspreide wolken op 3800 ft
Geheel bewolkt op 6200 ft

METAR: TFFF 160730Z AUTO VRB02KT 9999 SCT022 SCT038 OVC062 25/22 Q1015 NOSIG

Tijdstip: 03:43 (07:43 UTC)

Verwachting

Dit bericht is 3 uur en het 43 minuten geleden gemaakt, om 04:00 UTC
Verwachting geldig van 16 om 06 UTC tot 17 om 06 UTC
Wind 10 kt uit het oostzuidoosten
Zicht 10 km of meer
Verspreide wolken op 3000 ft
Kans 30% :
Tijdelijke
van 16 om 12 UTC tot 16 om 18 UTC
Zicht: 4000 m
Verspreide wolken op 1800 ft, Stapelwolken.
regenbuien

TAF: TFFF 160400Z 1606/1706 12010KT 9999 SCT030 PROB30 TEMPO 1612/1618 4000 SHRA SCT018TCU

Waarnemingen en weersverwachtingen van meer dan 4000 vliegvelden (METAR en TAF).

De beschikbare stations zijn de gele en rode punten op de kaart.

Ga met uw muis naar het station om de naam te zien.

Klik dan om waarnemingen en weersverwachtingen te zien.

kaart wijzigen: klik op de groene knoppen met een zwart kruis om in te zoomen, op de groene knop met een streepje om uit te zoomen of op de groene pijlen voor aangrenzende kaarten.


METAR-TAF: